createdAt,value
2022-08-23T00:02:02.453Z,35.51
2022-08-23T00:04:41.129Z,35.53
2022-08-23T00:07:29.754Z,35.33
2022-08-23T00:09:57.739Z,35.41
2022-08-23T00:12:26.662Z,35.54
2022-08-23T00:14:56.055Z,35.50
2022-08-23T00:17:33.661Z,35.61
2022-08-23T00:20:10.568Z,35.80
2022-08-23T00:22:40.177Z,35.99
2022-08-23T00:25:11.550Z,35.86
2022-08-23T00:27:39.643Z,35.90
2022-08-23T00:30:12.447Z,36.00
2022-08-23T00:32:41.559Z,35.98
2022-08-23T00:35:11.994Z,35.85
2022-08-23T00:37:40.549Z,35.80
2022-08-23T00:40:12.836Z,35.93
2022-08-23T00:43:28.616Z,36.21
2022-08-23T00:46:29.376Z,35.59
2022-08-23T00:48:58.285Z,35.87
2022-08-23T00:51:54.609Z,35.88
2022-08-23T00:54:27.363Z,36.15
2022-08-23T00:57:02.797Z,36.05
2022-08-23T00:59:30.873Z,36.08
2022-08-23T01:02:00.838Z,36.25
2022-08-23T01:04:36.822Z,35.93
2022-08-23T01:07:25.916Z,35.84
2022-08-23T01:09:59.569Z,35.60
2022-08-23T01:12:37.687Z,35.87
2022-08-23T01:15:32.614Z,35.71
2022-08-23T01:18:10.741Z,35.38
2022-08-23T01:21:07.090Z,35.46
2022-08-23T01:23:51.523Z,35.73
2022-08-23T01:26:22.838Z,35.77
2022-08-23T01:28:53.691Z,35.78
2022-08-23T01:31:23.827Z,36.22
2022-08-23T01:33:59.213Z,36.37
2022-08-23T01:36:28.081Z,36.22
2022-08-23T01:38:56.394Z,36.06
2022-08-23T01:41:24.793Z,36.48
2022-08-23T01:43:53.351Z,36.27
2022-08-23T01:46:25.114Z,36.75
2022-08-23T01:48:58.548Z,36.60
2022-08-23T01:51:30.124Z,36.90
2022-08-23T01:53:58.372Z,37.13
2022-08-23T01:56:38.407Z,36.69
2022-08-23T01:59:10.895Z,36.74
2022-08-23T02:01:44.307Z,37.05
2022-08-23T02:04:12.174Z,36.56
2022-08-23T02:06:40.154Z,36.60
2022-08-23T02:09:17.194Z,36.71
2022-08-23T02:11:47.434Z,36.90
2022-08-23T02:14:20.396Z,36.50
2022-08-23T02:17:03.359Z,36.82
2022-08-23T02:19:35.103Z,36.80
2022-08-23T02:22:05.918Z,36.78
2022-08-23T02:24:34.487Z,37.17
2022-08-23T02:27:05.669Z,36.68
2022-08-23T02:29:39.804Z,37.29
2022-08-23T02:32:13.095Z,37.18
2022-08-23T02:37:27.618Z,37.37
2022-08-23T02:39:56.234Z,37.48
2022-08-23T02:42:24.154Z,37.27
2022-08-23T02:44:52.087Z,37.48
2022-08-23T02:47:20.478Z,37.37
2022-08-23T02:50:01.369Z,37.16
2022-08-23T02:52:29.209Z,37.38
2022-08-23T02:54:58.396Z,37.50
2022-08-23T02:57:27.746Z,37.40
2022-08-23T02:59:59.578Z,37.23
2022-08-23T03:02:27.611Z,37.67
2022-08-23T03:04:55.613Z,37.62
2022-08-23T03:07:24.136Z,37.94
2022-08-23T03:09:52.216Z,38.14
2022-08-23T03:12:21.247Z,37.76
2022-08-23T03:14:54.376Z,37.61
2022-08-23T03:17:23.124Z,37.95
2022-08-23T03:19:52.489Z,38.03
2022-08-23T03:22:23.178Z,37.60
2022-08-23T03:24:53.202Z,37.74
2022-08-23T03:27:24.459Z,37.93
2022-08-23T03:29:52.460Z,37.55
2022-08-23T03:32:20.424Z,37.68
2022-08-23T03:34:48.514Z,37.64
2022-08-23T03:37:16.575Z,38.05
2022-08-23T03:39:44.660Z,38.28
2022-08-23T03:42:12.709Z,38.02
2022-08-23T03:44:40.709Z,38.03
2022-08-23T03:47:08.637Z,38.58
2022-08-23T03:49:37.851Z,38.22
2022-08-23T03:52:07.152Z,38.31
2022-08-23T03:54:35.733Z,38.53
2022-08-23T03:57:09.447Z,38.97
2022-08-23T03:59:40.758Z,38.96
2022-08-23T04:02:11.188Z,38.57
2022-08-23T04:04:40.043Z,38.62
2022-08-23T04:07:27.054Z,38.83
2022-08-23T04:09:57.500Z,38.80
2022-08-23T04:12:28.686Z,38.82
2022-08-23T04:14:56.552Z,39.24
2022-08-23T04:17:25.145Z,39.42
2022-08-23T04:19:53.871Z,39.02
2022-08-23T04:22:22.797Z,39.18
2022-08-23T04:24:51.061Z,39.27
2022-08-23T04:27:19.046Z,39.32
2022-08-23T04:29:48.138Z,39.12
2022-08-23T04:32:26.547Z,39.12
2022-08-23T04:34:57.686Z,39.54
2022-08-23T04:37:25.789Z,39.53
2022-08-23T04:40:12.398Z,39.44
2022-08-23T04:42:43.392Z,39.67
2022-08-23T04:45:12.543Z,39.80
2022-08-23T04:47:45.252Z,39.92
2022-08-23T04:50:13.238Z,39.75
2022-08-23T04:53:00.054Z,39.90
2022-08-23T04:55:29.219Z,39.53
2022-08-23T04:58:08.269Z,40.01
2022-08-23T05:00:49.550Z,39.74
2022-08-23T05:03:21.860Z,39.41
2022-08-23T05:05:49.802Z,39.63
2022-08-23T05:08:20.022Z,39.69
2022-08-23T05:10:47.836Z,39.38
2022-08-23T05:13:16.077Z,39.53
2022-08-23T05:15:44.588Z,39.60
2022-08-23T05:18:13.415Z,39.54
2022-08-23T05:20:42.404Z,39.50
2022-08-23T05:23:10.404Z,39.94
2022-08-23T05:25:53.257Z,39.54
2022-08-23T05:28:49.648Z,39.29
2022-08-23T05:31:27.450Z,39.26
2022-08-23T05:34:00.463Z,39.39
2022-08-23T05:36:47.425Z,39.61
2022-08-23T05:39:30.371Z,39.26
2022-08-23T05:42:08.987Z,39.77
2022-08-23T05:44:37.896Z,39.51
2022-08-23T05:47:15.642Z,39.93
2022-08-23T05:50:04.180Z,39.65
2022-08-23T05:52:36.064Z,39.65
2022-08-23T05:55:06.603Z,40.18
2022-08-23T05:57:53.076Z,40.27
2022-08-23T06:00:22.421Z,40.19
2022-08-23T06:03:06.238Z,39.92
2022-08-23T06:05:40.848Z,39.84
2022-08-23T06:08:09.396Z,39.72
2022-08-23T06:10:42.044Z,40.21
2022-08-23T06:13:27.531Z,39.73
2022-08-23T06:15:57.584Z,40.27
2022-08-23T06:18:28.796Z,40.16
2022-08-23T06:21:09.010Z,39.90
2022-08-23T06:23:49.550Z,39.59
2022-08-23T06:26:27.683Z,39.96
2022-08-23T06:28:59.148Z,39.69
2022-08-23T06:31:45.740Z,39.92
2022-08-23T06:34:46.667Z,39.49
2022-08-23T06:37:44.611Z,39.37
2022-08-23T06:40:44.976Z,38.92
2022-08-23T06:43:41.499Z,39.36
2022-08-23T06:46:32.939Z,38.88
2022-08-23T06:49:05.107Z,39.17
2022-08-23T06:51:48.611Z,38.75
2022-08-23T06:54:22.202Z,38.88
2022-08-23T06:57:09.056Z,38.79
2022-08-23T06:59:56.622Z,38.74
2022-08-23T07:02:45.753Z,38.62
2022-08-23T07:05:36.426Z,38.32
2022-08-23T07:08:18.394Z,38.44
2022-08-23T07:10:46.163Z,38.17
2022-08-23T07:13:18.094Z,38.35
2022-08-23T07:15:50.012Z,38.32
2022-08-23T07:18:20.740Z,38.20
2022-08-23T07:20:49.684Z,38.20
2022-08-23T07:23:17.687Z,37.99
2022-08-23T07:25:46.375Z,38.16
2022-08-23T07:28:18.021Z,37.96
2022-08-23T07:30:46.284Z,37.82
2022-08-23T07:33:15.529Z,37.75
2022-08-23T07:36:08.629Z,37.85
2022-08-23T07:38:36.699Z,38.52
2022-08-23T07:41:05.208Z,38.37
2022-08-23T07:43:34.603Z,38.38
2022-08-23T07:46:04.233Z,38.29
2022-08-23T07:48:52.921Z,38.26
2022-08-23T07:51:25.894Z,38.40
2022-08-23T07:53:54.373Z,38.27
2022-08-23T07:56:23.143Z,38.09
2022-08-23T07:59:10.005Z,38.08
2022-08-23T08:02:04.271Z,37.64
2022-08-23T08:04:33.026Z,37.68
2022-08-23T08:07:18.235Z,37.51
2022-08-23T08:09:49.843Z,37.36
2022-08-23T08:12:17.926Z,37.32
2022-08-23T08:14:49.195Z,37.02
2022-08-23T08:17:22.170Z,36.88
2022-08-23T08:20:20.686Z,36.79
2022-08-23T08:23:20.507Z,36.53
2022-08-23T08:26:11.673Z,36.47
2022-08-23T08:28:51.024Z,36.07
2022-08-23T08:31:19.834Z,36.00
2022-08-23T08:33:47.804Z,35.76
2022-08-23T08:36:39.589Z,36.07
2022-08-23T08:39:16.488Z,35.44
2022-08-23T08:42:12.456Z,35.34
2022-08-23T08:44:47.803Z,34.92
2022-08-23T08:47:42.504Z,34.92
2022-08-23T08:50:20.727Z,34.28
2022-08-23T08:53:06.187Z,34.25
2022-08-23T08:56:02.711Z,34.10
2022-08-23T08:59:11.522Z,34.26
2022-08-23T09:01:39.729Z,33.52
2022-08-23T09:04:08.353Z,33.14
2022-08-23T09:07:15.477Z,33.49
2022-08-23T09:10:17.999Z,32.71
2022-08-23T09:13:29.413Z,32.40
2022-08-23T09:16:40.909Z,32.69
2022-08-23T09:19:09.871Z,31.18
2022-08-23T09:22:13.459Z,31.97
2022-08-23T09:24:42.400Z,31.26
2022-08-23T09:27:16.729Z,31.28
2022-08-23T09:30:01.222Z,31.24
2022-08-23T09:32:38.715Z,30.47
2022-08-23T09:35:25.723Z,30.67
2022-08-23T09:38:23.209Z,30.64
2022-08-23T09:40:56.611Z,30.07
2022-08-23T09:43:27.842Z,30.01
2022-08-23T09:46:01.264Z,29.81
2022-08-23T09:48:42.585Z,29.58
2022-08-23T09:51:37.697Z,29.95
2022-08-23T09:54:27.475Z,29.78
2022-08-23T09:57:06.034Z,29.80
2022-08-23T09:59:48.142Z,29.44
2022-08-23T10:02:34.009Z,29.54
2022-08-23T10:05:18.530Z,29.40
2022-08-23T10:08:01.396Z,29.54
2022-08-23T10:10:36.824Z,29.72
2022-08-23T10:13:07.779Z,29.26
2022-08-23T10:15:57.286Z,29.26
2022-08-23T10:19:15.997Z,29.43
2022-08-23T10:22:22.124Z,28.89
2022-08-23T10:25:38.283Z,28.84
2022-08-23T10:29:13.035Z,28.77
2022-08-23T10:32:28.205Z,28.53
2022-08-23T10:35:35.149Z,28.72
2022-08-23T10:38:57.596Z,28.09
2022-08-23T10:41:45.821Z,28.04
2022-08-23T10:44:35.706Z,28.14
2022-08-23T10:47:37.874Z,28.37
2022-08-23T10:50:13.504Z,27.60
2022-08-23T10:53:01.407Z,27.05
2022-08-23T10:56:06.228Z,27.06
2022-08-23T10:58:53.645Z,26.79
2022-08-23T11:01:43.738Z,26.53
2022-08-23T11:04:48.955Z,26.06
2022-08-23T11:07:41.181Z,25.59
2022-08-23T11:10:27.526Z,25.77
2022-08-23T11:13:27.935Z,25.79
2022-08-23T11:16:15.340Z,25.52
2022-08-23T11:18:49.258Z,25.77
2022-08-23T11:21:28.563Z,24.93
2022-08-23T11:23:59.777Z,24.99
2022-08-23T11:26:49.685Z,25.00
2022-08-23T11:29:29.296Z,25.01
2022-08-23T11:32:29.382Z,25.52
2022-08-23T11:35:27.253Z,25.29
2022-08-23T11:38:05.241Z,25.07
2022-08-23T11:40:52.037Z,24.53
2022-08-23T11:43:38.207Z,24.51
2022-08-23T11:46:28.327Z,24.68
2022-08-23T11:49:29.277Z,23.92
2022-08-23T11:52:17.115Z,24.12
2022-08-23T11:55:51.522Z,24.18
2022-08-23T11:58:25.124Z,24.19
2022-08-23T12:01:16.635Z,24.02
2022-08-23T12:04:11.908Z,23.91
2022-08-23T12:07:01.759Z,23.89
2022-08-23T12:09:29.458Z,23.99
2022-08-23T12:11:57.146Z,24.02
2022-08-23T12:14:51.434Z,23.62
2022-08-23T12:17:20.389Z,23.29
2022-08-23T12:20:16.887Z,23.46
2022-08-23T12:23:01.071Z,23.39
2022-08-23T12:25:31.580Z,22.85
2022-08-23T12:28:34.680Z,22.97
2022-08-23T12:31:19.406Z,22.44
2022-08-23T12:34:38.177Z,23.11
2022-08-23T12:37:30.569Z,22.05
2022-08-23T12:40:06.875Z,22.00
2022-08-23T12:42:39.561Z,21.71
2022-08-23T12:45:36.138Z,21.76
2022-08-23T12:48:11.102Z,21.36
2022-08-23T12:50:51.982Z,21.22
2022-08-23T12:53:38.540Z,20.81
2022-08-23T12:56:31.682Z,20.43
2022-08-23T12:59:06.871Z,20.40
2022-08-23T13:01:38.626Z,20.94
2022-08-23T13:04:15.826Z,21.20
2022-08-23T13:06:55.158Z,21.27
2022-08-23T13:09:53.238Z,21.19
2022-08-23T13:12:24.232Z,20.71
2022-08-23T13:14:55.085Z,19.91
2022-08-23T13:17:41.009Z,20.15
2022-08-23T13:20:24.294Z,20.25
2022-08-23T13:23:09.250Z,20.16
2022-08-23T13:25:41.031Z,20.05
2022-08-23T13:28:28.526Z,20.18
2022-08-23T13:31:08.483Z,19.81
2022-08-23T13:33:37.328Z,19.30
2022-08-23T13:36:19.885Z,19.37
2022-08-23T13:38:49.930Z,19.32
2022-08-23T13:41:38.596Z,19.48
2022-08-23T13:44:08.958Z,19.41
2022-08-23T13:46:45.630Z,18.76
2022-08-23T13:49:19.878Z,19.10
2022-08-23T13:52:11.922Z,18.70
2022-08-23T13:54:51.349Z,18.19
2022-08-23T13:57:22.226Z,18.37
2022-08-23T13:59:58.730Z,18.24
2022-08-23T14:02:26.897Z,18.14
2022-08-23T14:04:54.835Z,18.13
2022-08-23T14:07:22.941Z,18.31
2022-08-23T14:09:54.845Z,18.10
2022-08-23T14:12:27.770Z,17.90
2022-08-23T14:15:01.162Z,17.45
2022-08-23T14:17:31.789Z,17.63
2022-08-23T14:22:48.065Z,17.21
2022-08-23T14:25:16.321Z,16.96
2022-08-23T14:27:47.815Z,16.95
2022-08-23T14:30:30.184Z,17.17
2022-08-23T14:33:01.233Z,17.26
2022-08-23T14:35:29.846Z,16.90
2022-08-23T14:38:05.641Z,16.85
2022-08-23T14:40:35.825Z,16.73
2022-08-23T14:43:05.861Z,16.47
2022-08-23T14:45:33.683Z,16.80
2022-08-23T14:48:01.911Z,17.18
2022-08-23T14:50:29.849Z,16.97
2022-08-23T14:52:57.807Z,16.33
2022-08-23T14:55:27.201Z,16.92
2022-08-23T14:57:55.132Z,16.25
2022-08-23T15:00:23.688Z,16.60
2022-08-23T15:02:51.790Z,16.15
2022-08-23T15:05:19.846Z,16.78
2022-08-23T15:07:47.702Z,16.65
2022-08-23T15:13:20.421Z,15.98
2022-08-23T15:15:53.589Z,15.70
2022-08-23T15:18:21.948Z,15.77
2022-08-23T15:20:51.307Z,15.99
2022-08-23T15:23:21.207Z,15.64
2022-08-23T15:25:50.006Z,15.48
2022-08-23T15:28:23.097Z,15.53
2022-08-23T15:30:52.047Z,15.92
2022-08-23T15:33:24.673Z,15.88
2022-08-23T15:35:54.999Z,15.69
2022-08-23T15:38:25.442Z,15.32
2022-08-23T15:40:55.120Z,15.36
2022-08-23T15:43:28.928Z,15.21
2022-08-23T15:46:07.258Z,15.33
2022-08-23T15:48:43.978Z,15.87
2022-08-23T15:51:12.377Z,15.63
2022-08-23T15:53:40.700Z,15.47
2022-08-23T15:56:15.128Z,15.38
2022-08-23T15:58:43.104Z,15.47
2022-08-23T16:01:12.181Z,15.86
2022-08-23T16:03:44.392Z,15.82
2022-08-23T16:06:13.787Z,15.94
2022-08-23T16:08:45.672Z,16.17
2022-08-23T16:11:13.668Z,16.01
2022-08-23T16:13:44.765Z,16.17
2022-08-23T16:16:25.629Z,16.74
2022-08-23T16:18:54.942Z,16.62
2022-08-23T16:21:26.349Z,16.44
2022-08-23T16:23:56.279Z,17.46
2022-08-23T16:26:34.501Z,17.41
2022-08-23T16:29:08.527Z,17.67
2022-08-23T16:31:39.384Z,17.69
2022-08-23T16:34:12.664Z,17.96
2022-08-23T16:36:46.190Z,17.52
2022-08-23T16:39:15.967Z,18.03
2022-08-23T16:41:43.843Z,18.13
2022-08-23T16:44:11.736Z,17.97
2022-08-23T16:46:42.703Z,17.98
2022-08-23T16:49:16.256Z,18.54
2022-08-23T16:51:44.902Z,18.03
2022-08-23T16:54:12.895Z,18.63
2022-08-23T16:56:42.679Z,18.73
2022-08-23T16:59:12.702Z,18.48
2022-08-23T17:01:53.979Z,18.69
2022-08-23T17:04:30.268Z,19.12
2022-08-23T17:07:00.673Z,19.03
2022-08-23T17:09:29.364Z,18.87
2022-08-23T17:12:01.337Z,18.81
2022-08-23T17:14:29.414Z,18.90
2022-08-23T17:16:57.205Z,18.76
2022-08-23T17:19:25.511Z,19.50
2022-08-23T17:21:53.366Z,19.39
2022-08-23T17:24:21.238Z,19.17
2022-08-23T17:26:49.738Z,19.92
2022-08-23T17:29:17.674Z,20.14
2022-08-23T17:31:49.066Z,20.03
2022-08-23T17:34:42.309Z,19.45
2022-08-23T17:37:22.371Z,19.80
2022-08-23T17:39:53.212Z,20.22
2022-08-23T17:42:21.805Z,20.59
2022-08-23T17:44:49.967Z,20.29
2022-08-23T17:47:18.822Z,20.86
2022-08-23T17:49:49.418Z,20.61
2022-08-23T17:52:18.289Z,20.49
2022-08-23T17:54:46.697Z,20.86
2022-08-23T17:57:15.103Z,21.17
2022-08-23T17:59:43.877Z,20.82
2022-08-23T18:02:11.756Z,21.41
2022-08-23T18:04:39.978Z,21.42
2022-08-23T18:07:08.507Z,21.36
2022-08-23T18:09:41.581Z,21.38
2022-08-23T18:12:16.638Z,21.46
2022-08-23T18:14:46.659Z,21.90
2022-08-23T18:17:15.088Z,21.87
2022-08-23T18:19:43.716Z,21.98
2022-08-23T18:22:11.873Z,22.18
2022-08-23T18:24:40.519Z,22.19
2022-08-23T18:27:27.241Z,22.42
2022-08-23T18:29:55.101Z,22.46
2022-08-23T18:32:23.319Z,22.51
2022-08-23T18:34:51.540Z,22.93
2022-08-23T18:37:21.933Z,22.80
2022-08-23T18:39:50.278Z,23.21
2022-08-23T18:42:18.878Z,23.30
2022-08-23T18:44:47.031Z,23.45
2022-08-23T18:47:15.404Z,23.73
2022-08-23T18:49:43.497Z,23.72
2022-08-23T18:52:12.582Z,23.82
2022-08-23T18:54:40.852Z,24.13
2022-08-23T18:57:08.991Z,24.39
2022-08-23T18:59:44.686Z,23.90
2022-08-23T19:02:12.871Z,23.86
2022-08-23T19:04:40.874Z,23.80
2022-08-23T19:07:08.902Z,24.10
2022-08-23T19:09:37.254Z,24.01
2022-08-23T19:12:06.512Z,24.26
2022-08-23T19:14:35.755Z,24.19
2022-08-23T19:17:10.127Z,24.57
2022-08-23T19:19:38.318Z,24.31
2022-08-23T19:22:06.149Z,24.53
2022-08-23T19:24:34.245Z,24.39
2022-08-23T19:27:02.413Z,24.48
2022-08-23T19:29:31.803Z,24.46
2022-08-23T19:31:59.782Z,24.81
2022-08-23T19:34:28.511Z,24.78
2022-08-23T19:37:01.174Z,24.67
2022-08-23T19:39:30.116Z,24.92
2022-08-23T19:41:58.363Z,24.76
2022-08-23T19:44:26.831Z,24.93
2022-08-23T19:46:56.284Z,25.33
2022-08-23T19:49:24.733Z,25.29
2022-08-23T19:51:52.756Z,25.43
2022-08-23T19:54:20.612Z,25.41
2022-08-23T19:56:59.575Z,25.87
2022-08-23T19:59:39.087Z,25.84
2022-08-23T20:02:13.149Z,25.76
2022-08-23T20:04:41.625Z,26.25
2022-08-23T20:07:09.405Z,25.99
2022-08-23T20:09:37.288Z,25.97
2022-08-23T20:12:06.119Z,25.86
2022-08-23T20:14:34.372Z,26.56
2022-08-23T20:17:04.534Z,25.99
2022-08-23T20:19:32.384Z,26.58
2022-08-23T20:22:20.065Z,26.37
2022-08-23T20:24:52.615Z,26.84
2022-08-23T20:27:28.369Z,26.42
2022-08-23T20:30:01.510Z,26.50
2022-08-23T20:32:31.334Z,26.96
2022-08-23T20:35:01.257Z,27.40
2022-08-23T20:37:30.311Z,26.82
2022-08-23T20:39:58.210Z,26.93
2022-08-23T20:42:26.402Z,26.94
2022-08-23T20:44:54.546Z,27.43
2022-08-23T20:47:22.546Z,27.35
2022-08-23T20:49:50.788Z,27.22
2022-08-23T20:52:18.692Z,27.62
2022-08-23T20:54:46.629Z,27.34
2022-08-23T20:57:14.538Z,27.52
2022-08-23T20:59:44.673Z,27.66
2022-08-23T21:02:13.238Z,27.25
2022-08-23T21:04:41.403Z,27.40
2022-08-23T21:07:09.335Z,27.42
2022-08-23T21:09:37.193Z,27.03
2022-08-23T21:12:06.124Z,26.98
2022-08-23T21:14:34.353Z,27.08
2022-08-23T21:17:02.171Z,27.14
2022-08-23T21:19:30.228Z,27.12
2022-08-23T21:21:58.430Z,27.27
2022-08-23T21:24:26.413Z,27.33
2022-08-23T21:26:54.310Z,27.67
2022-08-23T21:29:22.202Z,27.89
2022-08-23T21:31:50.003Z,27.52
2022-08-23T21:34:18.437Z,27.56
2022-08-23T21:36:46.275Z,28.12
2022-08-23T21:39:14.151Z,27.79
2022-08-23T21:41:44.967Z,27.83
2022-08-23T21:44:17.527Z,28.32
2022-08-23T21:46:46.198Z,28.41
2022-08-23T21:49:16.174Z,28.55
2022-08-23T21:51:45.720Z,28.90
2022-08-23T21:54:14.226Z,29.05
2022-08-23T21:56:42.736Z,28.79
2022-08-23T21:59:13.915Z,29.23
2022-08-23T22:01:42.791Z,29.02
2022-08-23T22:04:14.371Z,28.92
2022-08-23T22:06:46.533Z,29.46
2022-08-23T22:09:19.410Z,29.14
2022-08-23T22:11:49.455Z,29.46
2022-08-23T22:14:23.555Z,29.45
2022-08-23T22:16:55.174Z,29.31
2022-08-23T22:19:23.900Z,29.79
2022-08-23T22:21:52.804Z,29.72
2022-08-23T22:24:25.540Z,29.82
2022-08-23T22:26:55.696Z,29.65
2022-08-23T22:29:24.395Z,29.50
2022-08-23T22:31:52.355Z,30.03
2022-08-23T22:34:23.731Z,29.68
2022-08-23T22:36:52.130Z,30.00
2022-08-23T22:39:21.375Z,30.08
2022-08-23T22:41:50.101Z,30.32
2022-08-23T22:44:18.650Z,30.13
2022-08-23T22:46:46.583Z,30.06
2022-08-23T22:49:14.604Z,30.52
2022-08-23T22:51:42.702Z,30.15
2022-08-23T22:54:12.557Z,30.37
2022-08-23T22:56:45.766Z,30.58
2022-08-23T22:59:14.607Z,30.03
2022-08-23T23:01:50.432Z,30.68
2022-08-23T23:04:22.372Z,31.07
2022-08-23T23:06:50.564Z,30.89
2022-08-23T23:09:18.821Z,30.86
2022-08-23T23:11:46.870Z,31.47
2022-08-23T23:14:17.665Z,31.12
2022-08-23T23:16:49.288Z,31.24
2022-08-23T23:19:36.849Z,31.32
2022-08-23T23:22:07.517Z,31.52
2022-08-23T23:24:39.832Z,31.65
2022-08-23T23:27:08.057Z,31.51
2022-08-23T23:29:36.618Z,31.79
2022-08-23T23:32:04.994Z,31.81
2022-08-23T23:34:32.967Z,31.95
2022-08-23T23:37:00.747Z,32.10
2022-08-23T23:39:29.083Z,32.48
2022-08-23T23:41:57.303Z,32.39
2022-08-23T23:44:31.013Z,32.33
2022-08-23T23:47:01.872Z,32.51
2022-08-23T23:49:32.440Z,32.50
2022-08-23T23:52:04.227Z,32.78
2022-08-23T23:54:33.910Z,32.78
2022-08-23T23:57:03.684Z,32.94
2022-08-23T23:59:33.505Z,32.89
